createdAt,value
2022-08-22T00:02:19.798Z,91.80
2022-08-22T00:02:58.605Z,80.60
2022-08-22T00:02:58.997Z,90.40
2022-08-22T00:02:59.615Z,76.60
2022-08-22T00:04:56.080Z,91.50
2022-08-22T00:07:32.910Z,91.40
2022-08-22T00:10:25.659Z,91.70
2022-08-22T00:13:08.462Z,91.30
2022-08-22T00:15:44.237Z,91.70
2022-08-22T00:18:30.099Z,91.60
2022-08-22T00:21:18.881Z,91.90
2022-08-22T00:24:04.817Z,92.00
2022-08-22T00:26:59.618Z,92.00
2022-08-22T00:29:46.511Z,92.00
2022-08-22T00:32:35.712Z,91.90
2022-08-22T00:35:22.294Z,92.00
2022-08-22T00:38:05.995Z,91.90
2022-08-22T00:40:57.990Z,92.10
2022-08-22T00:43:43.461Z,92.00
2022-08-22T00:46:35.441Z,91.60
2022-08-22T00:49:24.509Z,91.80
2022-08-22T00:52:30.919Z,91.70
2022-08-22T00:55:18.711Z,91.80
2022-08-22T00:57:56.177Z,91.50
2022-08-22T01:00:26.830Z,91.70
2022-08-22T01:03:11.780Z,91.60
2022-08-22T01:06:06.307Z,91.60
2022-08-22T01:09:04.853Z,91.60
2022-08-22T01:12:06.857Z,91.70
2022-08-22T01:15:08.743Z,91.90
2022-08-22T01:17:59.082Z,91.70
2022-08-22T01:20:51.518Z,91.50
2022-08-22T01:23:40.526Z,90.90
2022-08-22T01:26:26.785Z,91.10
2022-08-22T01:29:30.892Z,91.30
2022-08-22T01:32:56.955Z,91.10
2022-08-22T01:36:03.168Z,91.10
2022-08-22T01:38:49.423Z,91.30
2022-08-22T01:41:20.182Z,91.60
2022-08-22T01:44:00.358Z,91.80
2022-08-22T01:46:49.708Z,91.80
2022-08-22T01:49:35.026Z,91.60
2022-08-22T01:52:09.906Z,91.90
2022-08-22T01:55:02.152Z,91.70
2022-08-22T01:57:29.635Z,91.70
2022-08-22T02:00:05.111Z,91.80
2022-08-22T02:02:41.437Z,91.90
2022-08-22T02:05:18.900Z,91.80
2022-08-22T02:07:46.625Z,91.80
2022-08-22T02:10:27.909Z,91.90
2022-08-22T02:13:14.000Z,91.90
2022-08-22T02:15:41.455Z,92.10
2022-08-22T02:18:28.416Z,92.00
2022-08-22T02:21:16.120Z,92.40
2022-08-22T02:23:51.001Z,92.20
2022-08-22T02:26:26.367Z,92.30
2022-08-22T02:29:01.927Z,92.00
2022-08-22T02:31:56.712Z,92.10
2022-08-22T02:35:15.215Z,92.10
2022-08-22T02:38:19.807Z,92.30
2022-08-22T02:40:53.032Z,92.30
2022-08-22T02:43:42.093Z,92.30
2022-08-22T02:46:44.774Z,92.30
2022-08-22T02:49:21.011Z,92.30
2022-08-22T02:52:00.463Z,92.30
2022-08-22T02:54:38.972Z,92.40
2022-08-22T02:57:33.949Z,92.20
2022-08-22T03:00:32.319Z,92.50
2022-08-22T03:03:03.707Z,92.60
2022-08-22T03:05:37.007Z,92.80
2022-08-22T03:08:10.440Z,92.80
2022-08-22T03:10:47.579Z,92.60
2022-08-22T03:13:26.278Z,92.50
2022-08-22T03:16:00.874Z,92.40
2022-08-22T03:18:59.005Z,92.40
2022-08-22T03:21:54.813Z,92.40
2022-08-22T03:24:49.292Z,92.50
2022-08-22T03:27:33.300Z,92.50
2022-08-22T03:30:08.930Z,92.80
2022-08-22T03:32:53.205Z,93.00
2022-08-22T03:35:54.513Z,92.70
2022-08-22T03:38:33.928Z,92.50
2022-08-22T03:41:09.107Z,92.40
2022-08-22T03:43:48.803Z,92.40
2022-08-22T03:46:44.091Z,92.30
2022-08-22T03:49:11.701Z,92.40
2022-08-22T03:51:38.841Z,92.50
2022-08-22T03:54:06.140Z,92.60
2022-08-22T03:56:43.298Z,92.60
2022-08-22T03:59:44.296Z,92.20
2022-08-22T04:02:42.944Z,92.40
2022-08-22T04:05:26.341Z,92.50
2022-08-22T04:08:26.305Z,92.60
2022-08-22T04:11:18.236Z,92.80
2022-08-22T04:14:00.205Z,92.70
2022-08-22T04:16:46.251Z,92.80
2022-08-22T04:19:42.793Z,93.00
2022-08-22T04:22:33.469Z,92.80
2022-08-22T04:25:11.697Z,92.60
2022-08-22T04:27:42.029Z,93.00
2022-08-22T04:30:34.877Z,92.70
2022-08-22T04:33:08.274Z,92.80
2022-08-22T04:35:50.572Z,92.60
2022-08-22T04:38:41.245Z,92.60
2022-08-22T04:41:25.827Z,92.30
2022-08-22T04:44:01.507Z,92.60
2022-08-22T04:46:45.860Z,92.30
2022-08-22T04:49:31.657Z,92.00
2022-08-22T04:52:30.503Z,92.00
2022-08-22T04:55:32.057Z,92.20
2022-08-22T04:58:19.952Z,91.80
2022-08-22T05:01:13.851Z,91.90
2022-08-22T05:03:49.351Z,92.00
2022-08-22T05:06:20.242Z,91.80
2022-08-22T05:08:53.789Z,91.90
2022-08-22T05:11:24.616Z,92.20
2022-08-22T05:13:58.831Z,92.00
2022-08-22T05:16:31.545Z,92.00
2022-08-22T05:19:28.571Z,91.50
2022-08-22T05:22:02.245Z,91.30
2022-08-22T05:24:52.353Z,91.20
2022-08-22T05:27:28.357Z,91.20
2022-08-22T05:30:05.244Z,89.30
2022-08-22T05:33:04.646Z,90.50
2022-08-22T05:35:50.131Z,90.10
2022-08-22T05:38:23.796Z,89.90
2022-08-22T05:40:59.014Z,89.70
2022-08-22T05:43:27.073Z,89.90
2022-08-22T05:45:58.468Z,90.00
2022-08-22T05:48:43.625Z,90.30
2022-08-22T05:51:22.408Z,90.60
2022-08-22T05:53:58.453Z,91.00
2022-08-22T05:57:07.824Z,90.80
2022-08-22T05:59:39.214Z,90.80
2022-08-22T06:02:09.792Z,91.00
2022-08-22T06:04:54.330Z,91.30
2022-08-22T06:07:35.227Z,91.30
2022-08-22T06:10:20.375Z,91.10
2022-08-22T06:13:01.453Z,90.80
2022-08-22T06:16:10.699Z,90.60
2022-08-22T06:18:42.987Z,90.60
2022-08-22T06:21:18.184Z,90.50
2022-08-22T06:24:08.977Z,90.60
2022-08-22T06:26:40.503Z,90.10
2022-08-22T06:29:09.978Z,90.40
2022-08-22T06:31:44.818Z,89.80
2022-08-22T06:34:25.502Z,89.50
2022-08-22T06:36:56.704Z,89.50
2022-08-22T06:39:44.312Z,89.30
2022-08-22T06:42:39.739Z,89.00
2022-08-22T06:45:31.615Z,89.00
2022-08-22T06:48:05.008Z,89.00
2022-08-22T06:50:39.389Z,87.10
2022-08-22T06:53:11.976Z,87.70
2022-08-22T06:55:43.827Z,87.20
2022-08-22T06:58:30.953Z,87.50
2022-08-22T07:01:38.400Z,87.10
2022-08-22T07:04:10.698Z,86.80
2022-08-22T07:06:45.352Z,86.40
2022-08-22T07:09:31.329Z,86.70
2022-08-22T07:12:02.413Z,87.10
2022-08-22T07:14:40.830Z,86.60
2022-08-22T07:17:16.643Z,88.00
2022-08-22T07:19:56.423Z,87.90
2022-08-22T07:22:33.942Z,88.10
2022-08-22T07:25:08.651Z,87.60
2022-08-22T07:28:04.028Z,87.30
2022-08-22T07:30:49.727Z,87.20
2022-08-22T07:33:39.571Z,87.60
2022-08-22T07:36:36.222Z,87.20
2022-08-22T07:39:21.848Z,87.30
2022-08-22T07:42:02.288Z,87.20
2022-08-22T07:44:58.853Z,87.00
2022-08-22T07:47:36.364Z,86.40
2022-08-22T07:50:08.506Z,86.50
2022-08-22T07:52:43.252Z,86.50
2022-08-22T07:55:20.301Z,86.00
2022-08-22T07:58:04.056Z,86.40
2022-08-22T08:00:32.949Z,86.40
2022-08-22T08:03:07.377Z,86.60
2022-08-22T08:05:37.472Z,86.20
2022-08-22T08:08:19.122Z,86.60
2022-08-22T08:10:49.472Z,86.40
2022-08-22T08:13:25.033Z,86.20
2022-08-22T08:15:53.287Z,86.50
2022-08-22T08:18:26.225Z,86.10
2022-08-22T08:20:58.173Z,85.70
2022-08-22T08:23:29.423Z,85.60
2022-08-22T08:26:00.494Z,85.60
2022-08-22T08:28:34.616Z,85.60
2022-08-22T08:31:27.219Z,85.40
2022-08-22T08:34:10.742Z,85.20
2022-08-22T08:36:50.149Z,85.60
2022-08-22T08:39:44.826Z,85.20
2022-08-22T08:43:00.051Z,85.20
2022-08-22T08:45:52.482Z,84.90
2022-08-22T08:48:43.977Z,84.90
2022-08-22T08:51:46.328Z,84.90
2022-08-22T08:54:35.328Z,84.80
2022-08-22T08:57:25.940Z,84.70
2022-08-22T09:00:12.276Z,84.20
2022-08-22T09:03:15.506Z,84.10
2022-08-22T09:05:57.570Z,84.10
2022-08-22T09:08:50.713Z,83.80
2022-08-22T09:11:59.309Z,83.60
2022-08-22T09:14:35.587Z,83.80
2022-08-22T09:17:30.882Z,82.30
2022-08-22T09:20:37.618Z,82.90
2022-08-22T09:23:35.276Z,82.60
2022-08-22T09:26:32.562Z,82.20
2022-08-22T09:29:21.723Z,82.70
2022-08-22T09:32:14.864Z,81.20
2022-08-22T09:35:28.366Z,81.20
2022-08-22T09:38:41.165Z,81.30
2022-08-22T09:41:35.822Z,80.50
2022-08-22T09:44:17.802Z,80.60
2022-08-22T09:46:51.570Z,80.10
2022-08-22T09:49:43.018Z,79.50
2022-08-22T09:52:51.297Z,78.80
2022-08-22T09:55:35.196Z,79.20
2022-08-22T09:58:21.371Z,79.00
2022-08-22T10:01:21.183Z,78.90
2022-08-22T10:04:26.002Z,77.90
2022-08-22T10:07:17.291Z,76.90
2022-08-22T10:10:04.187Z,76.50
2022-08-22T10:12:38.096Z,76.80
2022-08-22T10:15:21.528Z,77.00
2022-08-22T10:18:10.476Z,77.90
2022-08-22T10:21:04.418Z,78.30
2022-08-22T10:24:33.256Z,77.50
2022-08-22T10:27:14.256Z,78.70
2022-08-22T10:29:53.843Z,79.40
2022-08-22T10:32:27.118Z,78.90
2022-08-22T10:35:17.306Z,79.90
2022-08-22T10:38:01.362Z,79.10
2022-08-22T10:40:50.420Z,79.10
2022-08-22T10:43:20.599Z,79.40
2022-08-22T10:46:14.842Z,79.60
2022-08-22T10:48:58.692Z,80.20
2022-08-22T10:51:50.062Z,79.80
2022-08-22T10:54:39.256Z,79.50
2022-08-22T10:57:26.142Z,79.40
2022-08-22T11:00:11.309Z,79.50
2022-08-22T11:03:01.488Z,78.90
2022-08-22T11:06:00.736Z,78.70
2022-08-22T11:08:39.934Z,77.70
2022-08-22T11:11:34.937Z,77.20
2022-08-22T11:14:39.747Z,76.40
2022-08-22T11:17:41.647Z,76.60
2022-08-22T11:20:21.604Z,76.40
2022-08-22T11:23:12.363Z,76.10
2022-08-22T11:25:46.193Z,75.10
2022-08-22T11:28:41.963Z,75.00
2022-08-22T11:31:36.863Z,74.90
2022-08-22T11:34:25.688Z,74.20
2022-08-22T11:37:09.570Z,74.60
2022-08-22T11:39:49.284Z,74.40
2022-08-22T11:42:58.349Z,73.90
2022-08-22T11:45:36.097Z,74.40
2022-08-22T11:48:39.654Z,74.90
2022-08-22T11:51:38.529Z,74.10
2022-08-22T11:54:30.952Z,74.10
2022-08-22T11:57:27.570Z,73.60
2022-08-22T12:00:21.155Z,73.90
2022-08-22T12:03:19.202Z,74.30
2022-08-22T12:06:08.885Z,74.40
2022-08-22T12:08:36.400Z,74.40
2022-08-22T12:11:27.631Z,74.00
2022-08-22T12:14:06.416Z,73.90
2022-08-22T12:16:55.626Z,74.00
2022-08-22T12:20:16.102Z,74.40
2022-08-22T12:22:52.866Z,74.10
2022-08-22T12:25:57.765Z,74.40
2022-08-22T12:28:40.481Z,73.30
2022-08-22T12:31:38.631Z,73.20
2022-08-22T12:34:50.961Z,73.00
2022-08-22T12:37:52.026Z,73.10
2022-08-22T12:40:27.185Z,73.50
2022-08-22T12:43:04.725Z,73.00
2022-08-22T12:46:00.550Z,73.80
2022-08-22T12:49:07.559Z,73.70
2022-08-22T12:51:45.350Z,73.60
2022-08-22T12:54:32.282Z,74.20
2022-08-22T12:57:25.477Z,74.00
2022-08-22T13:00:04.671Z,74.30
2022-08-22T13:02:35.836Z,74.00
2022-08-22T13:05:26.256Z,73.70
2022-08-22T13:08:02.302Z,72.90
2022-08-22T13:10:48.395Z,72.90
2022-08-22T13:13:41.520Z,73.00
2022-08-22T13:16:16.875Z,73.10
2022-08-22T13:19:07.392Z,72.50
2022-08-22T13:21:43.710Z,73.50
2022-08-22T13:24:16.961Z,73.30
2022-08-22T13:26:56.475Z,73.30
2022-08-22T13:29:42.809Z,73.00
2022-08-22T13:32:39.297Z,73.00
2022-08-22T13:35:24.703Z,73.70
2022-08-22T13:37:58.821Z,73.90
2022-08-22T13:40:33.029Z,74.10
2022-08-22T13:43:14.026Z,74.10
2022-08-22T13:45:50.581Z,73.90
2022-08-22T13:48:23.349Z,73.90
2022-08-22T13:51:40.461Z,74.00
2022-08-22T13:54:11.292Z,74.20
2022-08-22T13:57:04.876Z,74.30
2022-08-22T13:59:53.612Z,74.40
2022-08-22T14:03:09.680Z,74.70
2022-08-22T14:05:53.261Z,73.80
2022-08-22T14:08:28.537Z,73.70
2022-08-22T14:10:58.018Z,73.90
2022-08-22T14:13:53.408Z,74.00
2022-08-22T14:16:26.041Z,74.40
2022-08-22T14:19:05.965Z,73.70
2022-08-22T14:21:41.676Z,74.10
2022-08-22T14:24:45.750Z,73.90
2022-08-22T14:27:49.905Z,74.40
2022-08-22T14:30:26.909Z,73.80
2022-08-22T14:33:09.213Z,74.30
2022-08-22T14:35:44.252Z,74.40
2022-08-22T14:38:30.517Z,74.90
2022-08-22T14:41:05.986Z,74.90
2022-08-22T14:43:33.597Z,75.60
2022-08-22T14:46:06.504Z,75.10
2022-08-22T14:48:40.876Z,74.90
2022-08-22T14:51:18.729Z,75.40
2022-08-22T14:53:50.481Z,75.10
2022-08-22T14:56:28.365Z,75.10
2022-08-22T14:59:06.920Z,75.40
2022-08-22T15:01:53.162Z,74.80
2022-08-22T15:04:34.130Z,74.60
2022-08-22T15:07:02.673Z,74.00
2022-08-22T15:09:51.216Z,74.40
2022-08-22T15:12:28.237Z,74.00
2022-08-22T15:15:07.241Z,73.60
2022-08-22T15:17:44.942Z,73.50
2022-08-22T15:20:38.232Z,73.90
2022-08-22T15:23:23.764Z,73.60
2022-08-22T15:26:02.099Z,73.90
2022-08-22T15:28:52.583Z,73.60
2022-08-22T15:31:21.168Z,73.50
2022-08-22T15:33:50.286Z,73.80
2022-08-22T15:36:25.215Z,73.60
2022-08-22T15:39:17.486Z,74.00
2022-08-22T15:41:48.572Z,74.20
2022-08-22T15:44:32.207Z,73.70
2022-08-22T15:47:10.712Z,73.80
2022-08-22T15:49:54.210Z,73.70
2022-08-22T15:52:26.170Z,74.00
2022-08-22T15:54:57.053Z,73.50
2022-08-22T15:57:39.335Z,74.00
2022-08-22T16:00:43.870Z,73.30
2022-08-22T16:03:15.344Z,73.00
2022-08-22T16:05:59.060Z,72.90
2022-08-22T16:08:52.615Z,71.70
2022-08-22T16:11:33.398Z,71.60
2022-08-22T16:14:22.203Z,72.10
2022-08-22T16:16:57.096Z,72.70
2022-08-22T16:19:27.822Z,71.80
2022-08-22T16:21:55.171Z,72.20
2022-08-22T16:24:22.543Z,72.50
2022-08-22T16:26:51.638Z,72.20
2022-08-22T16:29:50.850Z,72.40
2022-08-22T16:32:28.040Z,72.20
2022-08-22T16:34:55.608Z,72.20
2022-08-22T16:37:25.884Z,72.00
2022-08-22T16:39:59.225Z,72.00
2022-08-22T16:42:37.104Z,72.00
2022-08-22T16:45:07.539Z,72.50
2022-08-22T16:47:37.880Z,72.30
2022-08-22T16:50:19.847Z,73.10
2022-08-22T16:53:26.244Z,72.90
2022-08-22T16:56:11.433Z,73.10
2022-08-22T16:59:38.326Z,73.70
2022-08-22T17:02:20.774Z,74.10
2022-08-22T17:05:05.090Z,74.50
2022-08-22T17:08:16.816Z,74.60
2022-08-22T17:11:00.296Z,75.00
2022-08-22T17:13:53.342Z,75.30
2022-08-22T17:16:54.076Z,75.40
2022-08-22T17:19:43.733Z,75.60
2022-08-22T17:22:28.902Z,75.80
2022-08-22T17:25:39.049Z,77.50
2022-08-22T17:28:41.288Z,77.70
2022-08-22T17:31:28.170Z,78.00
2022-08-22T17:34:15.175Z,78.20
2022-08-22T17:37:26.259Z,78.30
2022-08-22T17:40:17.379Z,78.50
2022-08-22T17:43:04.714Z,78.90
2022-08-22T17:45:32.115Z,79.40
2022-08-22T17:58:58.931Z,81.00
2022-08-22T18:01:40.072Z,81.60
2022-08-22T18:04:17.532Z,81.90
2022-08-22T18:06:56.313Z,82.10
2022-08-22T18:09:40.631Z,82.50
2022-08-22T18:12:23.857Z,82.60
2022-08-22T18:15:02.066Z,83.20
2022-08-22T18:17:39.897Z,83.60
2022-08-22T18:20:10.586Z,84.20
2022-08-22T18:22:48.851Z,84.50
2022-08-22T18:25:19.015Z,84.60
2022-08-22T18:27:56.705Z,85.00
2022-08-22T18:30:31.533Z,85.00
2022-08-22T18:33:29.017Z,85.40
2022-08-22T18:36:06.491Z,85.90
2022-08-22T18:38:52.314Z,86.10
2022-08-22T18:41:31.468Z,86.60
2022-08-22T18:43:59.692Z,87.00
2022-08-22T18:46:40.945Z,87.30
2022-08-22T18:49:19.811Z,87.70
2022-08-22T18:52:05.895Z,87.90
2022-08-22T18:54:54.667Z,88.10
2022-08-22T18:57:38.802Z,88.00
2022-08-22T19:00:42.461Z,88.20
2022-08-22T19:03:22.491Z,88.40
2022-08-22T19:06:16.716Z,88.80
2022-08-22T19:09:10.002Z,88.60
2022-08-22T19:11:43.332Z,88.80
2022-08-22T19:14:26.474Z,89.20
2022-08-22T19:17:15.721Z,89.40
2022-08-22T19:20:21.892Z,89.70
2022-08-22T19:22:51.075Z,89.90
2022-08-22T19:25:29.108Z,89.90
2022-08-22T19:28:11.706Z,90.20
2022-08-22T19:30:48.987Z,90.40
2022-08-22T19:33:40.432Z,90.30
2022-08-22T19:36:31.142Z,90.60
2022-08-22T19:39:09.110Z,90.50
2022-08-22T19:41:57.196Z,90.60
2022-08-22T19:44:27.614Z,90.70
2022-08-22T19:47:14.855Z,90.70
2022-08-22T19:49:51.013Z,90.90
2022-08-22T19:52:40.022Z,90.90
2022-08-22T19:55:31.619Z,91.10
2022-08-22T19:58:32.047Z,91.20
2022-08-22T20:01:28.968Z,91.00
2022-08-22T20:04:09.618Z,91.10
2022-08-22T20:06:53.777Z,91.20
2022-08-22T20:09:56.699Z,91.30
2022-08-22T20:12:29.992Z,91.30
2022-08-22T20:14:57.854Z,91.30
2022-08-22T20:17:25.337Z,91.30
2022-08-22T20:20:17.542Z,91.40
2022-08-22T20:22:52.837Z,91.40
2022-08-22T20:25:42.514Z,92.20
2022-08-22T20:28:47.821Z,91.90
2022-08-22T20:31:27.427Z,92.00
2022-08-22T20:34:05.303Z,92.20
2022-08-22T20:36:33.267Z,92.20
2022-08-22T20:39:11.228Z,92.30
2022-08-22T20:41:46.060Z,92.30
2022-08-22T20:44:33.434Z,92.50
2022-08-22T20:47:06.195Z,92.20
2022-08-22T20:49:44.698Z,92.70
2022-08-22T20:52:22.493Z,92.90
2022-08-22T20:55:04.788Z,93.10
2022-08-22T20:57:33.457Z,93.30
2022-08-22T21:00:23.255Z,93.10
2022-08-22T21:03:07.898Z,93.20
2022-08-22T21:05:40.222Z,93.60
2022-08-22T21:08:18.653Z,93.70
2022-08-22T21:11:16.432Z,93.60
2022-08-22T21:13:43.993Z,93.40
2022-08-22T21:16:19.100Z,93.80
2022-08-22T21:18:52.451Z,94.30
2022-08-22T21:21:28.917Z,94.10
2022-08-22T21:24:01.322Z,94.10
2022-08-22T21:26:32.288Z,94.30
2022-08-22T21:29:18.532Z,94.10
2022-08-22T21:32:06.097Z,94.50
2022-08-22T21:34:41.142Z,94.40
2022-08-22T21:37:17.307Z,94.50
2022-08-22T21:40:00.689Z,94.50
2022-08-22T21:42:34.737Z,94.30
2022-08-22T21:45:08.692Z,94.50
2022-08-22T21:47:43.144Z,94.90
2022-08-22T21:50:14.230Z,94.60
2022-08-22T21:53:05.089Z,94.70
2022-08-22T21:55:43.355Z,94.60
2022-08-22T21:58:36.789Z,94.50
2022-08-22T22:01:30.617Z,94.80
2022-08-22T22:04:01.085Z,94.70
2022-08-22T22:06:29.418Z,95.20
2022-08-22T22:08:58.477Z,95.40
2022-08-22T22:11:26.149Z,95.20
2022-08-22T22:13:54.240Z,95.40
2022-08-22T22:16:30.052Z,94.90
2022-08-22T22:18:57.811Z,94.90
2022-08-22T22:21:25.886Z,95.20
2022-08-22T22:23:53.961Z,94.90
2022-08-22T22:26:26.326Z,95.10
2022-08-22T22:28:54.482Z,95.40
2022-08-22T22:31:23.563Z,95.50
2022-08-22T22:33:51.556Z,95.10
2022-08-22T22:36:23.381Z,94.20
2022-08-22T22:38:52.461Z,94.50
2022-08-22T22:41:26.481Z,94.20
2022-08-22T22:43:55.596Z,93.90
2022-08-22T22:46:24.199Z,93.50
2022-08-22T22:48:52.089Z,93.10
2022-08-22T22:51:19.953Z,92.50
2022-08-22T22:53:47.563Z,92.00
2022-08-22T22:56:21.281Z,91.80
2022-08-22T22:59:00.843Z,91.90
2022-08-22T23:01:39.500Z,91.60
2022-08-22T23:04:09.490Z,93.20
2022-08-22T23:06:37.110Z,92.80
2022-08-22T23:09:04.769Z,93.70
2022-08-22T23:11:33.339Z,93.60
2022-08-22T23:14:02.845Z,93.50
2022-08-22T23:16:35.183Z,93.30
2022-08-22T23:19:09.760Z,93.00
2022-08-22T23:21:37.377Z,92.70
2022-08-22T23:24:05.693Z,92.30
2022-08-22T23:26:33.923Z,93.60
2022-08-22T23:29:05.012Z,93.70
2022-08-22T23:31:51.539Z,93.30
2022-08-22T23:34:25.176Z,93.50
2022-08-22T23:36:54.416Z,93.40
2022-08-22T23:39:23.536Z,93.40
2022-08-22T23:41:51.336Z,93.30
2022-08-22T23:44:22.082Z,93.10
2022-08-22T23:46:49.797Z,93.20
2022-08-22T23:49:19.537Z,93.10
2022-08-22T23:51:48.308Z,93.20
2022-08-22T23:54:18.074Z,93.30
2022-08-22T23:56:51.743Z,93.90
2022-08-22T23:59:30.066Z,94.10
